METAR Data
IDs: Format: Raw Decoded Include TAF

Data at: 2301 UTC 25 Oct 2021

CYQQ 252200Z 13026G36KT 5SM -RA BR BKN036 OVC042 11/09 A2916 RMK SC6SC2 SLP875